Ana Sayfa
METAR-TAF:

METAR-TAF

Havaalanları :

Siirt, Türkiye

Siirt Havalimanı

Enlem: 37-58-41N, Boylam: 41-50-21E, yükseklik: 610 m

METAR: eksik

Saat: 06:12 (03:12 UTC)

Tahmin

Rapor saat 01:40 UTC de 1 saat ve 32 dakika önce yapıldı.
Ayın 26'si saat 03 UTC'den ayın 26'si saat 12 UTC'ye kadar geçerli Tahmin
Rüzgar kuzeydoğudan 8 kt
Görüş mesafesi 10 km veya daha fazla
4000 ft yükseklikte parçalı bulutlu
10000 ft yükseklikte parçalı çok bulutlu
Geçici
ayın 26'si saat 03 UTC'den ayın 26'si saat 06 UTC'ye kadar
2500 ft yükseklikte az bulutlu, Kümülonimbus.
3500 ft yükseklikte parçalı çok bulutlu
hafif sağanak yağmurlar

TAF: LTCL 260140Z 2603/2612 04008KT 9999 SCT040 BKN100 TEMPO 2603/2606 -SHRA FEW025CB BKN035

4.000'den fazla havaalanı için hava durumu gözlemleri ve tahminleri (METAR ve TAF raporları).

Kullanılabilir istasyonlar harita üzerinde sarı ve kırmızı noktalarla gösterilir.

İstasyonun adını görmek için fareyi noktanın üzerinde gezdirin.

Sonrasında hava gözlem ve tahminlerini görmek için tıklayın.

Haritayı değiştirmek için: yaklaştırmak için siyah artı işaretli yeşil düğmeye ve uzaklaştırmak için de eksi işaretli düğmeye hızla tıklayın; bitişik haritalar için yeşil okları kullanın.


METAR-TAF: